createdAt,value
2018-11-14T00:00:29.744Z,65.30
2018-11-14T00:01:00.855Z,65.30
2018-11-14T00:01:31.952Z,65.30
2018-11-14T00:02:03.059Z,65.30
2018-11-14T00:02:34.151Z,65.20
2018-11-14T00:03:05.240Z,65.10
2018-11-14T00:03:36.350Z,65.30
2018-11-14T00:04:07.452Z,65.10
2018-11-14T00:04:38.544Z,65.20
2018-11-14T00:05:09.639Z,65.20
2018-11-14T00:05:40.729Z,65.20
2018-11-14T00:06:11.814Z,65.10
2018-11-14T00:06:42.988Z,65.10
2018-11-14T00:07:14.096Z,65.10
2018-11-14T00:07:45.176Z,65.20
2018-11-14T00:08:16.255Z,65.10
2018-11-14T00:08:47.343Z,65.00
2018-11-14T00:09:18.437Z,65.00
2018-11-14T00:09:49.554Z,65.00
2018-11-14T00:10:20.662Z,64.90
2018-11-14T00:10:51.753Z,65.10
2018-11-14T00:11:22.936Z,64.90
2018-11-14T00:11:54.030Z,64.90
2018-11-14T00:12:25.117Z,64.90
2018-11-14T00:12:56.201Z,64.90
2018-11-14T00:13:27.288Z,65.00
2018-11-14T00:13:58.370Z,64.90
2018-11-14T00:14:29.468Z,64.90
2018-11-14T00:15:00.562Z,65.00
2018-11-14T00:15:31.650Z,65.00
2018-11-14T00:16:02.741Z,65.00
2018-11-14T00:16:33.849Z,65.00
2018-11-14T00:17:04.929Z,65.00
2018-11-14T00:17:36.032Z,65.00
2018-11-14T00:18:07.133Z,64.90
2018-11-14T00:18:38.221Z,64.90
2018-11-14T00:19:09.305Z,64.80
2018-11-14T00:19:40.609Z,64.80
2018-11-14T00:20:11.798Z,64.80
2018-11-14T00:20:42.801Z,64.80
2018-11-14T00:21:13.884Z,64.80
2018-11-14T00:21:45.322Z,64.80
2018-11-14T00:22:16.096Z,64.70
2018-11-14T00:22:47.187Z,64.70
2018-11-14T00:23:18.290Z,64.70
2018-11-14T00:23:49.390Z,64.80
2018-11-14T00:24:20.486Z,64.70
2018-11-14T00:24:51.756Z,64.70
2018-11-14T00:25:22.692Z,64.80
2018-11-14T00:25:53.813Z,64.70
2018-11-14T00:26:25.002Z,64.80
2018-11-14T00:26:56.107Z,64.80
2018-11-14T00:27:27.190Z,64.80
2018-11-14T00:27:58.304Z,64.80
2018-11-14T00:28:29.392Z,64.80
2018-11-14T00:29:00.495Z,64.90
2018-11-14T00:29:31.823Z,64.80
2018-11-14T00:30:02.725Z,64.80
2018-11-14T00:30:33.836Z,64.80
2018-11-14T00:31:04.930Z,64.80
2018-11-14T00:31:36.027Z,64.80
2018-11-14T00:32:07.134Z,64.80
2018-11-14T00:32:38.223Z,64.80
2018-11-14T00:33:09.324Z,64.80
2018-11-14T00:33:40.421Z,64.80
2018-11-14T00:34:11.505Z,64.80
2018-11-14T00:34:42.635Z,64.80
2018-11-14T00:35:13.726Z,64.80
2018-11-14T00:35:44.859Z,64.80
2018-11-14T00:36:15.938Z,64.70
2018-11-14T00:36:47.028Z,64.70
2018-11-14T00:37:18.108Z,64.70
2018-11-14T00:37:49.203Z,64.70
2018-11-14T00:38:20.298Z,65.50
2018-11-14T00:38:51.381Z,64.70
2018-11-14T00:39:22.485Z,64.70
2018-11-14T00:39:53.575Z,64.70
2018-11-14T00:40:24.655Z,64.70
2018-11-14T00:40:55.743Z,65.50
2018-11-14T00:41:26.944Z,64.70
2018-11-14T00:41:58.026Z,64.70
2018-11-14T00:42:29.114Z,64.70
2018-11-14T00:43:00.209Z,64.70
2018-11-14T00:43:31.292Z,64.70
2018-11-14T00:44:02.409Z,64.60
2018-11-14T00:44:33.493Z,64.60
2018-11-14T00:45:04.655Z,64.60
2018-11-14T00:45:35.747Z,64.60
2018-11-14T00:46:06.833Z,64.70
2018-11-14T00:46:37.924Z,64.70
2018-11-14T00:47:09.053Z,64.70
2018-11-14T00:47:40.143Z,64.70
2018-11-14T00:48:11.225Z,64.70
2018-11-14T00:48:42.316Z,64.70
2018-11-14T00:49:13.407Z,64.80
2018-11-14T00:49:44.491Z,64.80
2018-11-14T00:50:15.581Z,64.70
2018-11-14T00:50:46.684Z,64.70
2018-11-14T00:51:17.764Z,64.70
2018-11-14T00:51:48.935Z,64.80
2018-11-14T00:52:20.029Z,64.70
2018-11-14T00:52:51.118Z,64.80
2018-11-14T00:53:22.209Z,64.70
2018-11-14T00:53:53.305Z,64.80
2018-11-14T00:54:24.394Z,64.70
2018-11-14T00:54:55.523Z,64.80
2018-11-14T00:55:26.630Z,64.70
2018-11-14T00:55:57.718Z,64.80
2018-11-14T00:56:28.804Z,64.70
2018-11-14T00:56:59.901Z,64.80
2018-11-14T00:57:30.986Z,64.80
2018-11-14T00:58:02.078Z,64.80
2018-11-14T00:58:33.178Z,64.80
2018-11-14T00:59:04.272Z,64.80
2018-11-14T00:59:35.386Z,64.80
2018-11-14T01:00:06.982Z,64.80
2018-11-14T01:00:37.612Z,64.80
2018-11-14T01:01:08.699Z,64.80
2018-11-14T01:01:39.795Z,64.80
2018-11-14T01:02:10.898Z,64.80
2018-11-14T01:02:41.993Z,64.80
2018-11-14T01:03:13.081Z,65.60
2018-11-14T01:03:44.167Z,64.80
2018-11-14T01:04:15.275Z,64.80
2018-11-14T01:04:46.399Z,64.80
2018-11-14T01:05:17.503Z,64.80
2018-11-14T01:05:48.595Z,64.80
2018-11-14T01:06:19.675Z,64.90
2018-11-14T01:06:50.771Z,64.90
2018-11-14T01:07:21.864Z,65.00
2018-11-14T01:07:52.944Z,65.80
2018-11-14T01:08:24.031Z,65.00
2018-11-14T01:08:55.145Z,65.00
2018-11-14T01:09:26.243Z,65.00
2018-11-14T01:09:57.371Z,65.00
2018-11-14T01:10:28.464Z,65.00
2018-11-14T01:10:59.556Z,65.00
2018-11-14T01:11:30.648Z,65.00
2018-11-14T01:12:01.741Z,65.00
2018-11-14T01:12:32.820Z,65.00
2018-11-14T01:13:03.956Z,65.00
2018-11-14T01:13:35.029Z,65.00
2018-11-14T01:14:06.130Z,65.00
2018-11-14T01:14:37.213Z,65.70
2018-11-14T01:15:08.309Z,64.90
2018-11-14T01:15:39.396Z,64.90
2018-11-14T01:16:10.489Z,64.90
2018-11-14T01:16:41.577Z,64.80
2018-11-14T01:17:12.677Z,64.80
2018-11-14T01:17:43.779Z,64.80
2018-11-14T01:18:14.880Z,64.70
2018-11-14T01:18:46.008Z,64.70
2018-11-14T01:19:17.169Z,64.60
2018-11-14T01:19:48.279Z,64.60
2018-11-14T01:20:19.386Z,64.50
2018-11-14T01:20:50.473Z,64.50
2018-11-14T01:21:21.564Z,64.50
2018-11-14T01:21:52.653Z,64.50
2018-11-14T01:22:23.751Z,64.50
2018-11-14T01:22:54.841Z,64.50
2018-11-14T01:23:25.935Z,65.20
2018-11-14T01:23:57.025Z,64.50
2018-11-14T01:24:28.118Z,64.50
2018-11-14T01:24:59.217Z,64.50
2018-11-14T01:25:30.322Z,64.50
2018-11-14T01:26:01.406Z,64.50
2018-11-14T01:26:32.495Z,64.00
2018-11-14T01:27:03.615Z,64.50
2018-11-14T01:27:34.694Z,64.50
2018-11-14T01:28:05.790Z,64.50
2018-11-14T01:28:36.886Z,64.50
2018-11-14T01:29:07.979Z,64.50
2018-11-14T01:29:39.067Z,64.60
2018-11-14T01:30:10.174Z,64.60
2018-11-14T01:30:41.282Z,64.60
2018-11-14T01:31:12.374Z,64.70
2018-11-14T01:31:43.472Z,64.60
2018-11-14T01:32:14.570Z,64.60
2018-11-14T01:32:45.667Z,64.60
2018-11-14T01:33:16.784Z,64.60
2018-11-14T01:33:47.894Z,64.60
2018-11-14T01:34:18.979Z,64.60
2018-11-14T01:34:50.072Z,64.70
2018-11-14T01:35:21.191Z,64.70
2018-11-14T01:35:52.309Z,64.70
2018-11-14T01:36:23.385Z,64.70
2018-11-14T01:36:54.479Z,64.70
2018-11-14T01:37:25.561Z,64.70
2018-11-14T01:37:56.647Z,64.70
2018-11-14T01:38:27.739Z,64.70
2018-11-14T01:38:58.827Z,64.70
2018-11-14T01:39:29.924Z,64.70
2018-11-14T01:40:01.032Z,64.70
2018-11-14T01:40:32.151Z,64.70
2018-11-14T01:41:03.305Z,64.70
2018-11-14T01:41:34.364Z,64.70
2018-11-14T01:42:05.471Z,64.70
2018-11-14T01:42:36.557Z,64.70
2018-11-14T01:43:07.654Z,64.70
2018-11-14T01:43:38.756Z,64.70
2018-11-14T01:44:09.853Z,64.70
2018-11-14T01:44:40.956Z,64.70
2018-11-14T01:45:12.062Z,64.70
2018-11-14T01:45:43.161Z,64.70
2018-11-14T01:46:14.257Z,64.70
2018-11-14T01:46:45.352Z,64.80
2018-11-14T01:47:16.436Z,64.70
2018-11-14T01:47:47.548Z,64.80
2018-11-14T01:48:18.638Z,64.80
2018-11-14T01:48:49.721Z,64.80
2018-11-14T01:49:20.812Z,64.80
2018-11-14T01:49:51.922Z,64.80
2018-11-14T01:50:23.130Z,64.80
2018-11-14T01:50:54.241Z,64.80
2018-11-14T01:51:25.336Z,64.80
2018-11-14T01:51:56.424Z,64.80
2018-11-14T01:52:27.504Z,64.70
2018-11-14T01:52:58.598Z,64.80
2018-11-14T01:53:29.711Z,65.50
2018-11-14T01:54:00.801Z,64.70
2018-11-14T01:54:31.892Z,64.70
2018-11-14T01:55:02.981Z,64.70
2018-11-14T01:55:34.073Z,64.70
2018-11-14T01:56:05.192Z,64.70
2018-11-14T01:56:36.283Z,64.70
2018-11-14T01:57:07.374Z,64.60
2018-11-14T01:57:38.463Z,64.70
2018-11-14T01:58:09.550Z,64.70
2018-11-14T01:58:40.642Z,64.60
2018-11-14T01:59:11.734Z,64.60
2018-11-14T01:59:42.826Z,64.60
2018-11-14T02:00:13.911Z,64.60
2018-11-14T02:00:44.998Z,64.50
2018-11-14T02:01:16.094Z,64.50
2018-11-14T02:01:47.186Z,64.50
2018-11-14T02:02:18.330Z,64.50
2018-11-14T02:02:49.418Z,64.50
2018-11-14T02:03:20.506Z,64.50
2018-11-14T02:03:51.597Z,64.50
2018-11-14T02:04:22.694Z,64.50
2018-11-14T02:04:53.782Z,64.50
2018-11-14T02:05:24.885Z,64.50
2018-11-14T02:05:55.971Z,64.50
2018-11-14T02:06:27.058Z,64.60
2018-11-14T02:06:58.151Z,64.50
2018-11-14T02:07:29.230Z,64.50
2018-11-14T02:08:00.323Z,65.40
2018-11-14T02:08:31.411Z,64.50
2018-11-14T02:09:02.487Z,64.50
2018-11-14T02:09:33.575Z,64.50
2018-11-14T02:10:04.671Z,64.50
2018-11-14T02:10:35.787Z,64.50
2018-11-14T02:11:06.979Z,64.50
2018-11-14T02:11:38.079Z,64.50
2018-11-14T02:12:09.195Z,64.50
2018-11-14T02:12:40.295Z,64.50
2018-11-14T02:13:11.387Z,64.50
2018-11-14T02:13:42.466Z,64.50
2018-11-14T02:14:13.549Z,64.50
2018-11-14T02:14:44.634Z,64.50
2018-11-14T02:15:15.714Z,64.50
2018-11-14T02:15:46.808Z,64.50
2018-11-14T02:16:17.899Z,64.50
2018-11-14T02:16:49.000Z,64.50
2018-11-14T02:17:20.093Z,64.50
2018-11-14T02:17:51.177Z,64.50
2018-11-14T02:18:22.276Z,64.50
2018-11-14T02:18:53.356Z,64.50
2018-11-14T02:19:24.448Z,64.50
2018-11-14T02:19:55.534Z,64.50
2018-11-14T02:20:26.631Z,64.50
2018-11-14T02:20:57.716Z,64.50
2018-11-14T02:21:28.817Z,64.50
2018-11-14T02:21:59.901Z,64.50
2018-11-14T02:22:30.990Z,64.50
2018-11-14T02:23:02.085Z,64.50
2018-11-14T02:23:33.168Z,64.50
2018-11-14T02:24:04.261Z,64.50
2018-11-14T02:24:35.349Z,64.50
2018-11-14T02:25:06.457Z,64.50
2018-11-14T02:25:37.550Z,64.60
2018-11-14T02:26:08.647Z,64.60
2018-11-14T02:26:39.745Z,64.60
2018-11-14T02:27:10.837Z,64.50
2018-11-14T02:27:41.931Z,64.60
2018-11-14T02:28:13.017Z,64.60
2018-11-14T02:28:44.117Z,64.60
2018-11-14T02:29:15.214Z,64.60
2018-11-14T02:29:46.301Z,64.50
2018-11-14T02:30:17.397Z,64.60
2018-11-14T02:30:48.498Z,64.50
2018-11-14T02:31:19.594Z,64.60
2018-11-14T02:31:50.690Z,64.60
2018-11-14T02:32:21.888Z,64.50
2018-11-14T02:32:52.985Z,64.50
2018-11-14T02:33:24.070Z,64.50
2018-11-14T02:33:55.165Z,64.50
2018-11-14T02:34:26.299Z,64.50
2018-11-14T02:34:57.382Z,64.50
2018-11-14T02:35:28.468Z,65.20
2018-11-14T02:35:59.560Z,64.50
2018-11-14T02:36:30.713Z,64.50
2018-11-14T02:37:01.807Z,64.40
2018-11-14T02:37:32.991Z,64.40
2018-11-14T02:38:04.085Z,64.40
2018-11-14T02:38:35.171Z,64.40
2018-11-14T02:39:06.260Z,64.40
2018-11-14T02:39:37.343Z,64.30
2018-11-14T02:40:08.434Z,64.40
2018-11-14T02:40:39.511Z,64.40
2018-11-14T02:41:10.599Z,64.30
2018-11-14T02:41:41.704Z,64.40
2018-11-14T02:42:12.791Z,64.30
2018-11-14T02:42:43.903Z,64.30
2018-11-14T02:43:15.010Z,64.30
2018-11-14T02:43:46.108Z,64.30
2018-11-14T02:44:17.200Z,64.30
2018-11-14T02:44:48.280Z,64.30
2018-11-14T02:45:19.370Z,64.30
2018-11-14T02:45:50.453Z,65.00
2018-11-14T02:46:21.556Z,64.30
2018-11-14T02:46:52.657Z,64.30
2018-11-14T02:47:23.744Z,64.30
2018-11-14T02:47:54.832Z,64.30
2018-11-14T02:48:25.912Z,64.30
2018-11-14T02:48:57.000Z,64.30
2018-11-14T02:49:28.110Z,64.30
2018-11-14T02:49:59.193Z,64.30
2018-11-14T02:50:30.294Z,64.30
2018-11-14T02:51:01.399Z,64.30
2018-11-14T02:51:32.497Z,64.30
2018-11-14T02:52:03.584Z,64.30
2018-11-14T02:52:34.686Z,64.30
2018-11-14T02:53:05.773Z,64.40
2018-11-14T02:53:36.873Z,64.30
2018-11-14T02:54:07.975Z,64.30
2018-11-14T02:54:39.062Z,64.40
2018-11-14T02:55:10.161Z,64.30
2018-11-14T02:55:41.245Z,64.30
2018-11-14T02:56:12.329Z,64.60
2018-11-14T02:56:43.417Z,64.30
2018-11-14T02:57:14.517Z,64.40
2018-11-14T02:57:45.611Z,64.30
2018-11-14T02:58:16.708Z,64.30
2018-11-14T02:58:47.794Z,64.40
2018-11-14T02:59:18.886Z,64.30
2018-11-14T02:59:49.977Z,64.30
2018-11-14T03:00:21.069Z,64.40
2018-11-14T03:00:52.171Z,64.40
2018-11-14T03:01:23.271Z,64.30
2018-11-14T03:01:54.371Z,64.30
2018-11-14T03:02:25.464Z,64.40
2018-11-14T03:02:56.556Z,64.40
2018-11-14T03:03:27.634Z,64.40
2018-11-14T03:03:58.738Z,64.40
2018-11-14T03:04:29.837Z,64.50
2018-11-14T03:05:00.923Z,65.20
2018-11-14T03:05:32.010Z,64.50
2018-11-14T03:06:03.107Z,64.50
2018-11-14T03:06:34.202Z,64.50
2018-11-14T03:07:05.291Z,64.50
2018-11-14T03:07:36.406Z,64.50
2018-11-14T03:08:07.493Z,64.50
2018-11-14T03:08:38.583Z,64.40
2018-11-14T03:09:09.711Z,64.50
2018-11-14T03:09:40.815Z,64.50
2018-11-14T03:10:11.906Z,64.50
2018-11-14T03:10:43.021Z,64.40
2018-11-14T03:11:14.102Z,64.40
2018-11-14T03:11:45.199Z,64.40
2018-11-14T03:12:16.367Z,64.30
2018-11-14T03:12:47.387Z,64.30
2018-11-14T03:13:18.468Z,64.30
2018-11-14T03:13:49.553Z,64.30
2018-11-14T03:14:20.655Z,64.30
2018-11-14T03:14:51.734Z,64.30
2018-11-14T03:15:22.817Z,64.30
2018-11-14T03:15:53.904Z,64.30
2018-11-14T03:16:24.986Z,64.30
2018-11-14T03:16:56.071Z,64.30
2018-11-14T03:17:27.151Z,64.30
2018-11-14T03:17:58.240Z,64.20
2018-11-14T03:18:29.359Z,64.20
2018-11-14T03:19:00.447Z,64.20
2018-11-14T03:19:31.541Z,64.20
2018-11-14T03:20:02.629Z,64.10
2018-11-14T03:20:33.725Z,64.20
2018-11-14T03:21:04.832Z,64.10
2018-11-14T03:21:35.916Z,64.20
2018-11-14T03:22:07.017Z,64.10
2018-11-14T03:22:38.099Z,64.20
2018-11-14T03:23:09.189Z,64.20
2018-11-14T03:23:40.281Z,64.60
2018-11-14T03:24:11.369Z,64.20
2018-11-14T03:24:42.461Z,64.20
2018-11-14T03:25:13.547Z,64.20
2018-11-14T03:25:44.629Z,64.20
2018-11-14T03:26:15.721Z,64.90
2018-11-14T03:26:46.805Z,64.00
2018-11-14T03:27:17.897Z,64.10
2018-11-14T03:27:48.981Z,64.10
2018-11-14T03:28:20.230Z,64.10
2018-11-14T03:28:51.317Z,64.10
2018-11-14T03:29:22.410Z,64.20
2018-11-14T03:29:53.502Z,64.10
2018-11-14T03:30:24.597Z,64.10
2018-11-14T03:30:55.695Z,64.10
2018-11-14T03:31:26.850Z,64.10
2018-11-14T03:31:57.942Z,64.10
2018-11-14T03:32:29.034Z,64.10
2018-11-14T03:33:00.129Z,64.20
2018-11-14T03:33:31.213Z,64.20
2018-11-14T03:34:02.303Z,64.20
2018-11-14T03:34:33.414Z,64.70
2018-11-14T03:35:04.503Z,64.20
2018-11-14T03:35:35.586Z,64.20
2018-11-14T03:36:06.769Z,64.70
2018-11-14T03:36:37.863Z,64.10
2018-11-14T03:37:08.953Z,64.20
2018-11-14T03:37:40.040Z,64.20
2018-11-14T03:38:11.135Z,64.20
2018-11-14T03:38:42.316Z,64.20
2018-11-14T03:39:13.403Z,64.20
2018-11-14T03:39:44.498Z,64.20
2018-11-14T03:40:15.581Z,64.20
2018-11-14T03:40:46.663Z,64.20
2018-11-14T03:41:17.763Z,64.20
2018-11-14T03:41:48.856Z,64.20
2018-11-14T03:42:19.963Z,64.20
2018-11-14T03:42:51.066Z,64.20
2018-11-14T03:43:22.167Z,64.20
2018-11-14T03:43:53.256Z,64.20
2018-11-14T03:44:24.347Z,64.30
2018-11-14T03:44:55.465Z,64.30
2018-11-14T03:45:26.572Z,64.30
2018-11-14T03:45:57.663Z,64.40
2018-11-14T03:46:28.787Z,64.40
2018-11-14T03:46:59.876Z,64.30
2018-11-14T03:47:30.959Z,64.30
2018-11-14T03:48:02.036Z,64.30
2018-11-14T03:48:33.124Z,64.30
2018-11-14T03:49:04.212Z,64.30
2018-11-14T03:49:35.313Z,64.30
2018-11-14T03:50:06.397Z,64.30
2018-11-14T03:50:37.484Z,64.40
2018-11-14T03:51:08.594Z,64.30
2018-11-14T03:51:39.686Z,64.30
2018-11-14T03:52:10.793Z,64.20
2018-11-14T03:52:41.884Z,64.20
2018-11-14T03:53:13.007Z,64.10
2018-11-14T03:53:44.086Z,64.20
2018-11-14T03:54:15.173Z,64.20
2018-11-14T03:54:46.261Z,64.10
2018-11-14T03:55:17.347Z,64.00
2018-11-14T03:55:48.437Z,63.80
2018-11-14T03:56:19.546Z,63.70
2018-11-14T03:56:50.632Z,63.70
2018-11-14T03:57:21.721Z,63.70
2018-11-14T03:57:52.884Z,63.60
2018-11-14T03:58:24.021Z,63.60
2018-11-14T03:58:55.087Z,63.60
2018-11-14T03:59:26.174Z,63.70
2018-11-14T03:59:57.266Z,63.60
2018-11-14T04:00:28.353Z,63.70
2018-11-14T04:00:59.440Z,63.60
2018-11-14T04:01:30.545Z,63.60
2018-11-14T04:02:01.631Z,63.60
2018-11-14T04:02:32.718Z,63.60
2018-11-14T04:03:03.806Z,63.60
2018-11-14T04:03:34.902Z,63.60
2018-11-14T04:04:06.010Z,63.60
2018-11-14T04:04:37.098Z,63.50
2018-11-14T04:05:08.182Z,63.50
2018-11-14T04:05:39.283Z,63.50
2018-11-14T04:06:10.370Z,63.50
2018-11-14T04:06:41.480Z,63.50
2018-11-14T04:07:12.583Z,63.50
2018-11-14T04:07:43.687Z,63.50
2018-11-14T04:08:14.787Z,63.50
2018-11-14T04:08:45.872Z,63.50
2018-11-14T04:09:17.041Z,63.50
2018-11-14T04:09:48.067Z,63.30
2018-11-14T04:10:19.147Z,63.40
2018-11-14T04:10:50.227Z,63.40
2018-11-14T04:11:21.323Z,63.30
2018-11-14T04:11:52.428Z,63.30
2018-11-14T04:12:23.529Z,63.30
2018-11-14T04:12:54.643Z,63.30
2018-11-14T04:13:25.746Z,63.30
2018-11-14T04:13:56.846Z,63.30
2018-11-14T04:14:27.931Z,63.30
2018-11-14T04:14:59.021Z,63.20
2018-11-14T04:15:30.120Z,63.30
2018-11-14T04:16:01.211Z,63.30
2018-11-14T04:16:32.315Z,63.30
2018-11-14T04:17:03.396Z,63.30
2018-11-14T04:17:34.495Z,63.30
2018-11-14T04:18:05.576Z,63.30
2018-11-14T04:18:36.689Z,63.30
2018-11-14T04:19:07.764Z,63.30
2018-11-14T04:19:38.845Z,63.20
2018-11-14T04:20:09.933Z,63.20
2018-11-14T04:20:41.020Z,63.30
2018-11-14T04:21:12.108Z,64.00
2018-11-14T04:21:43.225Z,63.20
2018-11-14T04:22:14.311Z,63.20
2018-11-14T04:22:45.489Z,63.20
2018-11-14T04:23:16.573Z,63.20
2018-11-14T04:23:47.662Z,63.20
2018-11-14T04:24:18.741Z,63.20
2018-11-14T04:24:49.828Z,63.20
2018-11-14T04:25:20.933Z,63.20
2018-11-14T04:25:52.105Z,63.20
2018-11-14T04:26:23.192Z,63.20
2018-11-14T04:26:54.289Z,63.10
2018-11-14T04:27:25.374Z,63.60
2018-11-14T04:27:56.474Z,63.10
2018-11-14T04:28:27.571Z,63.10
2018-11-14T04:28:58.666Z,63.00
2018-11-14T04:29:29.758Z,63.00
2018-11-14T04:30:00.859Z,63.00
2018-11-14T04:30:32.022Z,63.00
2018-11-14T04:31:03.106Z,62.90
2018-11-14T04:31:34.189Z,63.70
2018-11-14T04:32:05.289Z,62.90
2018-11-14T04:32:36.378Z,62.90
2018-11-14T04:33:07.562Z,62.90
2018-11-14T04:33:38.658Z,62.90
2018-11-14T04:34:09.743Z,62.90
2018-11-14T04:34:40.816Z,62.90
2018-11-14T04:35:11.902Z,62.90
2018-11-14T04:35:42.998Z,62.80
2018-11-14T04:36:14.082Z,62.80
2018-11-14T04:36:45.179Z,62.70
2018-11-14T04:37:16.270Z,62.70
2018-11-14T04:37:47.362Z,62.70
2018-11-14T04:38:18.451Z,62.70
2018-11-14T04:38:49.542Z,62.70
2018-11-14T04:39:20.631Z,62.70
2018-11-14T04:39:51.711Z,62.80
2018-11-14T04:40:22.791Z,62.80
2018-11-14T04:40:53.875Z,62.80
2018-11-14T04:41:24.960Z,62.80
2018-11-14T04:41:56.067Z,62.80
2018-11-14T04:42:27.173Z,62.80
2018-11-14T04:42:58.264Z,62.80
2018-11-14T04:43:29.360Z,62.80
2018-11-14T04:44:00.443Z,62.70
2018-11-14T04:44:31.531Z,62.80
2018-11-14T04:45:02.615Z,62.80
2018-11-14T04:45:33.700Z,62.80
2018-11-14T04:46:04.892Z,62.70
2018-11-14T04:46:35.984Z,62.70
2018-11-14T04:47:07.073Z,62.90
2018-11-14T04:47:38.175Z,62.70
2018-11-14T04:48:09.336Z,62.80
2018-11-14T04:48:40.364Z,62.70
2018-11-14T04:49:11.451Z,62.80
2018-11-14T04:49:42.548Z,62.90
2018-11-14T04:50:13.630Z,62.80
2018-11-14T04:50:44.717Z,62.80
2018-11-14T04:51:15.808Z,63.00
2018-11-14T04:51:46.902Z,62.80
2018-11-14T04:52:18.012Z,62.80
2018-11-14T04:52:49.092Z,62.80
2018-11-14T04:53:20.180Z,62.70
2018-11-14T04:53:51.270Z,62.70
2018-11-14T04:54:22.353Z,62.70
2018-11-14T04:54:53.482Z,62.70
2018-11-14T04:55:24.577Z,62.70
2018-11-14T04:55:55.669Z,62.80
2018-11-14T04:56:26.869Z,62.70
2018-11-14T04:56:58.036Z,62.80
2018-11-14T04:57:29.129Z,62.90
2018-11-14T04:58:00.397Z,62.90
2018-11-14T04:58:31.713Z,63.90
2018-11-14T04:59:02.929Z,62.90
2018-11-14T04:59:34.176Z,62.90
2018-11-14T05:00:05.261Z,62.90
2018-11-14T05:00:36.351Z,62.90
2018-11-14T05:01:07.441Z,62.90
2018-11-14T05:01:38.540Z,62.90
2018-11-14T05:02:09.638Z,62.90
2018-11-14T05:02:40.821Z,62.90
2018-11-14T05:03:11.823Z,63.00
2018-11-14T05:03:42.910Z,62.90
2018-11-14T05:04:14.003Z,63.00
2018-11-14T05:04:45.102Z,63.00
2018-11-14T05:05:16.191Z,62.90
2018-11-14T05:05:47.290Z,62.90
2018-11-14T05:06:18.374Z,62.90
2018-11-14T05:06:49.466Z,62.90
2018-11-14T05:07:20.547Z,62.90
2018-11-14T05:07:51.634Z,62.90
2018-11-14T05:08:22.719Z,62.90
2018-11-14T05:08:53.817Z,63.40
2018-11-14T05:09:24.916Z,62.90
2018-11-14T05:09:56.022Z,62.90
2018-11-14T05:10:27.109Z,62.90
2018-11-14T05:10:58.187Z,62.80
2018-11-14T05:11:29.282Z,62.80
2018-11-14T05:12:00.363Z,62.80
2018-11-14T05:12:31.474Z,62.80
2018-11-14T05:13:02.619Z,62.90
2018-11-14T05:13:33.671Z,62.80
2018-11-14T05:14:04.764Z,62.80
2018-11-14T05:14:35.856Z,62.80
2018-11-14T05:15:06.953Z,62.70
2018-11-14T05:15:38.044Z,62.70
2018-11-14T05:16:09.136Z,62.70
2018-11-14T05:16:40.218Z,62.70
2018-11-14T05:17:11.301Z,62.70
2018-11-14T05:17:42.384Z,62.70
2018-11-14T05:18:13.500Z,62.70
2018-11-14T05:18:44.592Z,62.70
2018-11-14T05:19:15.684Z,62.70
2018-11-14T05:19:46.771Z,62.70
2018-11-14T05:20:17.852Z,62.70
2018-11-14T05:20:48.936Z,62.60
2018-11-14T05:21:20.048Z,62.60
2018-11-14T05:21:51.225Z,62.60
2018-11-14T05:22:22.305Z,62.60
2018-11-14T05:22:53.391Z,62.60
2018-11-14T05:23:24.489Z,62.60
2018-11-14T05:23:55.569Z,62.60
2018-11-14T05:24:26.712Z,63.50
2018-11-14T05:24:57.789Z,62.60
2018-11-14T05:25:28.873Z,62.70
2018-11-14T05:25:59.964Z,62.70
2018-11-14T05:26:31.045Z,62.70
2018-11-14T05:27:02.281Z,62.70
2018-11-14T05:27:33.366Z,62.60
2018-11-14T05:28:04.457Z,62.60
2018-11-14T05:28:35.585Z,62.60
2018-11-14T05:29:06.667Z,62.70
2018-11-14T05:29:37.767Z,62.60
2018-11-14T05:30:08.872Z,62.60
2018-11-14T05:30:39.957Z,62.60
2018-11-14T05:31:11.066Z,62.60
2018-11-14T05:31:42.168Z,62.60
2018-11-14T05:32:13.258Z,62.60
2018-11-14T05:32:44.350Z,62.70
2018-11-14T05:33:15.434Z,62.70
2018-11-14T05:33:46.566Z,62.70
2018-11-14T05:34:17.656Z,62.70
2018-11-14T05:34:48.744Z,62.70
2018-11-14T05:35:19.841Z,62.70
2018-11-14T05:35:50.922Z,62.70
2018-11-14T05:36:22.022Z,62.80
2018-11-14T05:36:53.162Z,62.80
2018-11-14T05:37:24.255Z,62.70
2018-11-14T05:37:58.411Z,62.70
2018-11-14T05:38:29.512Z,62.70
2018-11-14T05:39:00.606Z,62.80
2018-11-14T05:39:31.741Z,62.70
2018-11-14T05:40:02.959Z,62.80
2018-11-14T05:40:34.049Z,62.80
2018-11-14T05:41:05.141Z,62.80
2018-11-14T05:41:36.243Z,62.90
2018-11-14T05:42:07.335Z,62.80
2018-11-14T05:42:38.415Z,62.80
2018-11-14T05:43:09.507Z,62.80
2018-11-14T05:43:40.588Z,62.70
2018-11-14T05:44:11.679Z,62.80
2018-11-14T05:44:42.772Z,62.70
2018-11-14T05:45:13.880Z,62.50
2018-11-14T05:45:44.952Z,62.60
2018-11-14T05:46:16.047Z,62.60
2018-11-14T05:46:47.132Z,62.60
2018-11-14T05:47:18.220Z,62.80
2018-11-14T05:47:49.303Z,62.60
2018-11-14T05:48:20.444Z,62.70
2018-11-14T05:48:51.528Z,62.60
2018-11-14T05:49:22.624Z,62.60
2018-11-14T05:49:53.705Z,62.60
2018-11-14T05:50:24.796Z,62.60
2018-11-14T05:50:55.895Z,62.60
2018-11-14T05:51:26.987Z,63.30
2018-11-14T05:51:58.080Z,62.60
2018-11-14T05:52:29.161Z,62.60
2018-11-14T05:53:00.244Z,62.50
2018-11-14T05:53:31.345Z,62.50
2018-11-14T05:54:02.426Z,62.60
2018-11-14T05:54:33.513Z,62.60
2018-11-14T05:55:04.790Z,62.50
2018-11-14T05:55:35.781Z,62.60
2018-11-14T05:56:06.865Z,62.50
2018-11-14T05:56:37.953Z,63.40
2018-11-14T05:57:09.046Z,62.60
2018-11-14T05:57:40.152Z,63.40
2018-11-14T05:58:11.246Z,62.60
2018-11-14T05:58:42.333Z,62.60
2018-11-14T05:59:13.420Z,62.60
2018-11-14T05:59:44.509Z,62.60
2018-11-14T06:00:15.613Z,62.70
2018-11-14T06:00:46.709Z,62.60
2018-11-14T06:01:17.801Z,62.60
2018-11-14T06:01:48.889Z,62.60
2018-11-14T06:02:19.982Z,62.60
2018-11-14T06:02:51.069Z,62.60
2018-11-14T06:03:22.202Z,62.60
2018-11-14T06:03:53.289Z,62.70
2018-11-14T06:04:24.390Z,62.70
2018-11-14T06:04:55.474Z,62.70
2018-11-14T06:05:26.554Z,62.70
2018-11-14T06:05:57.652Z,62.70
2018-11-14T06:06:28.775Z,62.70
2018-11-14T06:06:59.923Z,62.70
2018-11-14T06:07:31.032Z,62.70
2018-11-14T06:08:02.084Z,62.70
2018-11-14T06:08:33.176Z,62.70
2018-11-14T06:09:04.279Z,62.70
2018-11-14T06:09:35.374Z,62.80
2018-11-14T06:10:06.459Z,62.80
2018-11-14T06:10:37.563Z,62.90
2018-11-14T06:11:08.751Z,62.80
2018-11-14T06:11:39.835Z,62.80
2018-11-14T06:12:10.913Z,62.80
2018-11-14T06:12:42.003Z,62.80
2018-11-14T06:13:13.101Z,62.80
2018-11-14T06:13:44.201Z,62.90
2018-11-14T06:14:15.276Z,62.90
2018-11-14T06:14:46.363Z,62.90
2018-11-14T06:15:17.532Z,62.90
2018-11-14T06:15:48.564Z,62.90
2018-11-14T06:16:19.663Z,62.90
2018-11-14T06:16:50.752Z,62.90
2018-11-14T06:17:21.832Z,62.90
2018-11-14T06:17:52.925Z,62.90
2018-11-14T06:18:24.010Z,62.90
2018-11-14T06:18:55.205Z,62.90
2018-11-14T06:19:26.294Z,62.90
2018-11-14T06:19:57.389Z,62.90
2018-11-14T06:20:28.480Z,62.90
2018-11-14T06:20:59.580Z,62.90
2018-11-14T06:21:30.668Z,62.90
2018-11-14T06:22:01.803Z,62.90
2018-11-14T06:22:32.881Z,62.90
2018-11-14T06:23:03.974Z,62.90
2018-11-14T06:23:35.191Z,62.90
2018-11-14T06:24:06.284Z,62.90
2018-11-14T06:24:37.370Z,62.90
2018-11-14T06:25:08.464Z,62.90
2018-11-14T06:25:39.545Z,62.90
2018-11-14T06:26:10.661Z,63.00
2018-11-14T06:26:41.788Z,62.90
2018-11-14T06:27:12.874Z,62.90
2018-11-14T06:27:43.966Z,62.90
2018-11-14T06:28:15.062Z,63.70
2018-11-14T06:28:46.149Z,62.90
2018-11-14T06:29:17.233Z,62.90
2018-11-14T06:29:48.361Z,62.90
2018-11-14T06:30:19.437Z,62.90
2018-11-14T06:30:50.530Z,62.90
2018-11-14T06:31:21.617Z,62.90
2018-11-14T06:31:52.710Z,63.00
2018-11-14T06:32:23.798Z,63.00
2018-11-14T06:32:54.887Z,63.00
2018-11-14T06:33:25.967Z,63.00
2018-11-14T06:33:57.061Z,63.00
2018-11-14T06:34:28.163Z,63.00
2018-11-14T06:34:59.251Z,63.00
2018-11-14T06:35:30.343Z,63.00
2018-11-14T06:36:01.483Z,63.00
2018-11-14T06:36:32.571Z,63.00
2018-11-14T06:37:03.658Z,63.00
2018-11-14T06:37:34.753Z,63.00
2018-11-14T06:38:05.839Z,63.00
2018-11-14T06:38:36.946Z,63.90
2018-11-14T06:39:08.026Z,63.90
2018-11-14T06:39:39.120Z,63.10
2018-11-14T06:40:10.196Z,63.10
2018-11-14T06:40:41.290Z,63.00